Time,TemperatureF,DewpointF,PressureIn,WindDirection,WindDirectionDegrees,WindSpeedMPH,WindSpeedGustMPH,Humidity,HourlyPrecipIn,Conditions,Clouds,dailyrainin,SolarRadiationWatts/m^2,SoftwareType,DateUTC
2013-10-23 00:04:00,32.0,31.0,-100.00,East,95,1.0,4.0,95,0.00,,,0.23,0.000000,,2013-10-23 04:04:00,
2013-10-23 00:10:00,31.0,30.0,-100.00,East,81,1.0,3.0,95,0.00,,,0.23,0.000000,,2013-10-23 04:10:00,
2013-10-23 00:45:00,31.0,30.0,-100.00,East,81,1.0,3.0,95,0.00,,,0.23,0.000000,,2013-10-23 04:45:00,
2013-10-23 00:55:00,31.0,30.0,-100.00,East,81,1.0,3.0,95,0.00,,,0.23,0.000000,,2013-10-23 04:55:00,
2013-10-23 01:04:00,31.0,30.0,-100.00,East,81,1.0,3.0,95,0.00,,,0.23,0.000000,,2013-10-23 05:04:00,
2013-10-23 01:10:00,31.0,30.0,-100.00,ESE,114,1.0,4.0,95,0.00,,,0.23,0.000000,,2013-10-23 05:10:00,
2013-10-23 01:43:00,31.0,30.0,-100.00,ESE,114,1.0,4.0,95,0.00,,,0.23,0.000000,,2013-10-23 05:43:00,
2013-10-23 01:53:00,31.0,30.0,-100.00,ESE,114,1.0,4.0,95,0.00,,,0.23,0.000000,,2013-10-23 05:53:00,
2013-10-23 02:02:00,31.0,30.0,-100.00,ESE,114,1.0,4.0,95,0.00,,,0.23,0.000000,,2013-10-23 06:02:00,
2013-10-23 02:10:00,30.0,29.0,-100.00,WSW,254,1.0,1.0,95,0.00,,,0.23,0.000000,,2013-10-23 06:10:00,
2013-10-23 02:42:00,30.0,29.0,-100.00,WSW,254,1.0,1.0,95,0.00,,,0.23,0.000000,,2013-10-23 06:42:00,
2013-10-23 02:52:00,30.0,29.0,-100.00,WSW,254,1.0,1.0,95,0.00,,,0.23,0.000000,,2013-10-23 06:52:00,
2013-10-23 03:01:00,30.0,29.0,-100.00,WSW,254,1.0,1.0,95,0.00,,,0.23,0.000000,,2013-10-23 07:01:00,
2013-10-23 03:10:00,29.0,28.0,-100.00,SSE,164,1.0,2.0,95,0.00,,,0.23,0.000000,,2013-10-23 07:10:00,
2013-10-23 03:42:00,29.0,28.0,-100.00,SSE,164,1.0,2.0,95,0.00,,,0.23,0.000000,,2013-10-23 07:42:00,
2013-10-23 03:52:00,29.0,28.0,-100.00,SSE,164,1.0,2.0,95,0.00,,,0.23,0.000000,,2013-10-23 07:52:00,
2013-10-23 04:02:00,29.0,28.0,-100.00,SSE,164,1.0,2.0,95,0.00,,,0.23,0.000000,,2013-10-23 08:02:00,
2013-10-23 04:10:00,29.0,28.0,-100.00,ESE,108,0.0,0.0,95,0.00,,,0.23,0.000000,,2013-10-23 08:10:00,
2013-10-23 04:42:00,29.0,28.0,-100.00,ESE,108,0.0,0.0,95,0.00,,,0.23,0.000000,,2013-10-23 08:42:00,
2013-10-23 04:53:00,29.0,28.0,-100.00,ESE,108,0.0,0.0,95,0.00,,,0.23,0.000000,,2013-10-23 08:53:00,
2013-10-23 05:02:00,29.0,28.0,-100.00,ESE,108,0.0,0.0,95,0.00,,,0.23,0.000000,,2013-10-23 09:02:00,
2013-10-23 05:10:00,28.0,27.0,-100.00,SE,125,0.0,2.0,95,0.00,,,0.23,0.000000,,2013-10-23 09:10:00,
2013-10-23 05:43:00,28.0,27.0,-100.00,SE,125,0.0,2.0,95,0.00,,,0.23,0.000000,,2013-10-23 09:43:00,
2013-10-23 05:53:00,28.0,27.0,-100.00,SE,125,0.0,2.0,95,0.00,,,0.23,0.000000,,2013-10-23 09:53:00,
2013-10-23 06:03:00,28.0,27.0,-100.00,SE,125,0.0,2.0,95,0.00,,,0.23,0.000000,,2013-10-23 10:03:00,
2013-10-23 06:10:00,29.0,28.0,-100.00,ENE,75,0.0,0.0,95,0.00,,,0.23,0.000000,,2013-10-23 10:10:00,
2013-10-23 06:43:00,29.0,28.0,-100.00,ENE,75,0.0,0.0,95,0.00,,,0.23,0.000000,,2013-10-23 10:43:00,
2013-10-23 06:53:00,29.0,28.0,-100.00,ENE,75,0.0,0.0,95,0.00,,,0.23,0.000000,,2013-10-23 10:53:00,
2013-10-23 07:03:00,29.0,28.0,-100.00,ENE,75,0.0,0.0,95,0.00,,,0.23,0.000000,,2013-10-23 11:03:00,
2013-10-23 07:10:00,29.0,28.0,-100.00,SE,130,1.0,2.0,95,0.00,,,0.23,0.000000,,2013-10-23 11:10:00,
2013-10-23 07:42:00,29.0,28.0,-100.00,SE,130,1.0,2.0,95,0.00,,,0.23,0.000000,,2013-10-23 11:42:00,
2013-10-23 07:52:00,29.0,28.0,-100.00,SE,130,1.0,2.0,95,0.00,,,0.23,0.000000,,2013-10-23 11:52:00,
2013-10-23 08:01:00,29.0,28.0,-100.00,SE,130,1.0,2.0,95,0.00,,,0.23,0.000000,,2013-10-23 12:01:00,
2013-10-23 08:10:00,29.0,28.0,-100.00,South,191,0.0,0.0,95,0.00,,,0.23,14.000000,,2013-10-23 12:10:00,
2013-10-23 08:42:00,29.0,28.0,-100.00,South,191,0.0,0.0,95,0.00,,,0.23,14.000000,,2013-10-23 12:42:00,
2013-10-23 08:52:00,29.0,28.0,-100.00,South,191,0.0,0.0,95,0.00,,,0.23,14.000000,,2013-10-23 12:52:00,
2013-10-23 09:01:00,29.0,28.0,-100.00,South,191,0.0,0.0,95,0.00,,,0.23,14.000000,,2013-10-23 13:01:00,
2013-10-23 09:10:00,32.0,31.0,-100.00,SW,228,1.0,3.0,95,0.00,,,0.23,52.000000,,2013-10-23 13:10:00,
2013-10-23 09:43:00,32.0,31.0,-100.00,SW,228,1.0,3.0,95,0.00,,,0.23,52.000000,,2013-10-23 13:43:00,
2013-10-23 09:52:00,32.0,31.0,-100.00,SW,228,1.0,3.0,95,0.00,,,0.23,52.000000,,2013-10-23 13:52:00,
2013-10-23 10:02:00,32.0,31.0,-100.00,SW,228,1.0,3.0,95,0.00,,,0.23,52.000000,,2013-10-23 14:02:00,
2013-10-23 10:10:00,35.0,34.0,-100.00,NE,43,0.0,2.0,95,0.00,,,0.21,88.000000,,2013-10-23 14:10:00,
2013-10-23 10:42:00,35.0,34.0,-100.00,NE,43,0.0,2.0,95,0.00,,,0.21,88.000000,,2013-10-23 14:42:00,
2013-10-23 10:52:00,35.0,34.0,-100.00,NE,43,0.0,2.0,95,0.00,,,0.21,88.000000,,2013-10-23 14:52:00,
2013-10-23 11:02:00,35.0,34.0,-100.00,NE,43,0.0,2.0,95,0.00,,,0.21,88.000000,,2013-10-23 15:02:00,
2013-10-23 11:10:00,41.0,40.0,-100.00,South,182,2.0,5.0,95,0.00,,,0.15,73.000000,,2013-10-23 15:10:00,
2013-10-23 11:43:00,41.0,40.0,-100.00,South,182,2.0,5.0,95,0.00,,,0.15,73.000000,,2013-10-23 15:43:00,
2013-10-23 11:53:00,41.0,40.0,-100.00,South,182,2.0,5.0,95,0.00,,,0.15,73.000000,,2013-10-23 15:53:00,
2013-10-23 12:03:00,41.0,40.0,-100.00,South,182,2.0,5.0,95,0.00,,,0.15,73.000000,,2013-10-23 16:03:00,
2013-10-23 12:10:00,47.0,36.0,-100.00,SW,215,3.0,9.0,66,0.00,,,0.15,146.000000,,2013-10-23 16:10:00,
2013-10-23 12:43:00,47.0,36.0,-100.00,SW,215,3.0,9.0,66,0.00,,,0.15,146.000000,,2013-10-23 16:43:00,
2013-10-23 12:53:00,47.0,36.0,-100.00,SW,215,3.0,9.0,66,0.00,,,0.15,146.000000,,2013-10-23 16:53:00,
2013-10-23 13:03:00,47.0,36.0,-100.00,SW,215,3.0,9.0,66,0.00,,,0.15,146.000000,,2013-10-23 17:03:00,
2013-10-23 13:10:00,48.0,32.0,-100.00,WSW,245,3.0,8.0,53,0.00,,,0.15,227.000000,,2013-10-23 17:10:00,
2013-10-23 13:44:00,48.0,32.0,-100.00,WSW,245,3.0,8.0,53,0.00,,,0.15,227.000000,,2013-10-23 17:44:00,
2013-10-23 13:52:00,48.0,32.0,-100.00,WSW,245,3.0,8.0,53,0.00,,,0.15,227.000000,,2013-10-23 17:52:00,
2013-10-23 14:02:00,48.0,32.0,-100.00,WSW,245,3.0,8.0,53,0.00,,,0.15,227.000000,,2013-10-23 18:02:00,
2013-10-23 15:10:00,49.0,31.0,-100.00,West,269,4.0,7.0,49,-99.99,,,0.14,107.000000,,2013-10-23 19:10:00,
2013-10-23 15:42:00,49.0,31.0,-100.00,West,269,4.0,7.0,49,-99.99,,,0.14,107.000000,,2013-10-23 19:42:00,
2013-10-23 15:53:00,49.0,31.0,-100.00,West,269,4.0,7.0,49,-99.99,,,0.14,107.000000,,2013-10-23 19:53:00,
2013-10-23 16:03:00,49.0,31.0,-100.00,West,269,4.0,7.0,49,-99.99,,,0.14,107.000000,,2013-10-23 20:03:00,
2013-10-23 16:10:00,51.0,30.0,-100.00,NNW,334,2.0,10.0,45,0.00,,,0.00,128.000000,,2013-10-23 20:10:00,
2013-10-23 16:42:00,51.0,30.0,-100.00,NNW,334,2.0,10.0,45,0.00,,,0.00,128.000000,,2013-10-23 20:42:00,
2013-10-23 16:52:00,51.0,30.0,-100.00,NNW,334,2.0,10.0,45,0.00,,,0.00,128.000000,,2013-10-23 20:52:00,
2013-10-23 17:02:00,51.0,30.0,-100.00,NNW,334,2.0,10.0,45,0.00,,,0.00,128.000000,,2013-10-23 21:02:00,
2013-10-23 17:10:00,46.0,29.0,-100.00,NNW,346,1.0,6.0,52,0.00,,,0.00,41.000000,,2013-10-23 21:10:00,
2013-10-23 17:43:00,46.0,29.0,-100.00,NNW,346,1.0,6.0,52,0.00,,,0.00,41.000000,,2013-10-23 21:43:00,
2013-10-23 17:54:00,46.0,29.0,-100.00,NNW,346,1.0,6.0,52,0.00,,,0.00,41.000000,,2013-10-23 21:54:00,
2013-10-23 18:04:00,46.0,29.0,-100.00,NNW,346,1.0,6.0,52,0.00,,,0.00,41.000000,,2013-10-23 22:04:00,
2013-10-23 18:10:00,39.0,30.0,-100.00,East,97,1.0,2.0,71,0.00,,,0.00,7.000000,,2013-10-23 22:10:00,
2013-10-23 18:43:00,39.0,30.0,-100.00,East,97,1.0,2.0,71,0.00,,,0.00,7.000000,,2013-10-23 22:43:00,
2013-10-23 18:54:00,39.0,30.0,-100.00,East,97,1.0,2.0,71,0.00,,,0.00,7.000000,,2013-10-23 22:54:00,
2013-10-23 19:03:00,39.0,30.0,-100.00,East,97,1.0,2.0,71,0.00,,,0.00,7.000000,,2013-10-23 23:03:00,
2013-10-23 19:10:00,35.0,31.0,-100.00,East,93,1.0,3.0,84,0.00,,,0.00,0.000000,,2013-10-23 23:10:00,
2013-10-23 19:43:00,35.0,31.0,-100.00,East,93,1.0,3.0,84,0.00,,,0.00,0.000000,,2013-10-23 23:43:00,
2013-10-23 19:53:00,35.0,31.0,-100.00,East,93,1.0,3.0,84,0.00,,,0.00,0.000000,,2013-10-23 23:53:00,
2013-10-23 20:02:00,35.0,31.0,-100.00,East,93,1.0,3.0,84,0.00,,,0.00,0.000000,,2013-10-24 00:02:00,
2013-10-23 20:10:00,33.0,30.0,-100.00,SE,144,1.0,2.0,87,0.00,,,0.00,0.000000,,2013-10-24 00:10:00,
2013-10-23 20:43:00,33.0,30.0,-100.00,SE,144,1.0,2.0,87,0.00,,,0.00,0.000000,,2013-10-24 00:43:00,
2013-10-23 20:52:00,33.0,30.0,-100.00,SE,144,1.0,2.0,87,0.00,,,0.00,0.000000,,2013-10-24 00:52:00,
2013-10-23 21:01:00,33.0,30.0,-100.00,SE,144,1.0,2.0,87,0.00,,,0.00,0.000000,,2013-10-24 01:01:00,
2013-10-23 21:10:00,32.0,29.0,-100.00,East,87,1.0,2.0,89,0.00,,,0.00,0.000000,,2013-10-24 01:10:00,
2013-10-23 21:42:00,32.0,29.0,-100.00,East,87,1.0,2.0,89,0.00,,,0.00,0.000000,,2013-10-24 01:42:00,
2013-10-23 21:52:00,32.0,29.0,-100.00,East,87,1.0,2.0,89,0.00,,,0.00,0.000000,,2013-10-24 01:52:00,
2013-10-23 22:03:00,32.0,29.0,-100.00,East,87,1.0,2.0,89,0.00,,,0.00,0.000000,,2013-10-24 02:03:00,
2013-10-23 22:10:00,32.0,29.0,-100.00,ENE,78,0.0,0.0,90,0.00,,,0.00,0.000000,,2013-10-24 02:10:00,
2013-10-23 22:52:00,32.0,29.0,-100.00,ENE,78,0.0,0.0,90,0.00,,,0.00,0.000000,,2013-10-24 02:52:00,
2013-10-23 23:02:00,32.0,29.0,-100.00,ENE,78,0.0,0.0,90,0.00,,,0.00,0.000000,,2013-10-24 03:02:00,
2013-10-23 23:10:00,32.0,29.0,-100.00,East,90,1.0,2.0,90,0.00,,,0.00,0.000000,,2013-10-24 03:10:00,
2013-10-23 23:44:00,32.0,29.0,-100.00,East,90,1.0,2.0,90,0.00,,,0.00,0.000000,,2013-10-24 03:44:00,
2013-10-23 23:55:00,32.0,29.0,-100.00,East,90,1.0,2.0,90,0.00,,,0.00,0.000000,,2013-10-24 03:55:00,